Time;durP1;ratioP1;P1;durP2;ratioP2;P2;SDS_P1;SDS_P2;PMS_P1;PMS_P2;Temp;Humidity;BMP_temperature;BMP_pressure;BME280_temperature;BME280_humidity;BME280_pressure;Samples;Min_cycle;Max_cycle;Signal;HPM_P1;HPM_P2
2021/11/11 00:00:49;;;;;;;4.03;2.95;;;22.70;38.90;;;;;;5055529;28;20420;-67
2021/11/11 00:03:15;;;;;;;3.90;3.10;;;22.60;39.20;;;;;;5054895;28;20491;-68
2021/11/11 00:05:41;;;;;;;4.10;2.83;;;22.50;39.30;;;;;;5047714;28;20397;-66
2021/11/11 00:08:08;;;;;;;4.10;2.90;;;22.60;39.90;;;;;;5055566;28;21005;-68
2021/11/11 00:10:34;;;;;;;4.25;3.13;;;22.60;39.70;;;;;;5054477;28;20941;-68
2021/11/11 00:13:00;;;;;;;3.90;3.47;;;22.50;39.60;;;;;;5048409;28;20484;-66
2021/11/11 00:15:27;;;;;;;3.40;2.88;;;22.50;39.00;;;;;;5048277;28;20521;-69
2021/11/11 00:17:53;;;;;;;3.92;3.05;;;22.50;39.30;;;;;;5051248;28;20968;-67
2021/11/11 00:20:23;;;;;;;3.67;2.95;;;22.40;39.40;;;;;;5045971;28;20488;-67
2021/11/11 00:22:50;;;;;;;3.88;2.85;;;22.40;39.90;;;;;;5042874;28;20747;-66
2021/11/11 00:25:18;;;;;;;3.65;3.03;;;22.40;39.80;;;;;;5048547;28;20524;-68
2021/11/11 00:27:45;;;;;;;4.10;2.88;;;22.40;39.70;;;;;;5058710;28;20380;-66
2021/11/11 00:30:12;;;;;;;3.47;2.80;;;22.40;39.20;;;;;;5055812;28;20488;-68
2021/11/11 00:32:39;;;;;;;3.80;3.00;;;22.30;39.20;;;;;;5046689;28;20397;-67
2021/11/11 00:35:11;;;;;;;3.95;2.92;;;22.30;39.30;;;;;;5049911;28;20386;-68
2021/11/11 00:37:37;;;;;;;3.28;2.60;;;22.30;39.90;;;;;;5048209;28;20397;-67
2021/11/11 00:40:05;;;;;;;3.28;2.50;;;22.30;40.00;;;;;;5053978;28;20416;-68
2021/11/11 00:42:31;;;;;;;3.63;2.90;;;22.30;39.80;;;;;;5048859;28;20465;-67
2021/11/11 00:44:56;;;;;;;4.00;2.87;;;22.20;38.90;;;;;;5050488;28;20401;-67
2021/11/11 00:47:22;;;;;;;3.33;2.75;;;22.20;39.20;;;;;;5049765;28;20406;-68
2021/11/11 00:49:48;;;;;;;3.63;2.80;;;22.20;39.30;;;;;;5051867;28;20499;-68
2021/11/11 00:52:15;;;;;;;3.53;2.70;;;22.10;40.00;;;;;;5048253;28;20894;-66
2021/11/11 00:54:41;;;;;;;2.90;2.45;;;22.20;40.00;;;;;;5057069;28;20483;-68
2021/11/11 00:57:08;;;;;;;3.20;2.50;;;22.20;40.00;;;;;;5050424;28;20440;-67
2021/11/11 00:59:34;;;;;;;4.10;2.90;;;22.20;39.40;;;;;;5048598;28;20393;-67
2021/11/11 01:02:02;;;;;;;2.80;2.50;;;22.10;39.10;;;;;;5054230;28;20383;-68
2021/11/11 01:04:27;;;;;;;3.30;2.38;;;22.10;39.40;;;;;;5053802;28;20384;-67
2021/11/11 01:06:53;;;;;;;2.80;2.35;;;22.10;40.00;;;;;;5056295;28;20387;-67
2021/11/11 01:09:19;;;;;;;3.50;2.57;;;22.10;40.10;;;;;;5051056;28;20761;-67
2021/11/11 01:11:44;;;;;;;3.15;2.50;;;22.10;39.90;;;;;;5045902;28;20452;-67
2021/11/11 01:14:10;;;;;;;3.03;2.43;;;22.10;39.40;;;;;;5048629;28;20866;-67
2021/11/11 01:16:36;;;;;;;2.83;2.40;;;22.00;39.10;;;;;;5052991;28;20389;-66
2021/11/11 01:19:02;;;;;;;3.00;2.50;;;22.00;39.20;;;;;;5051053;28;20425;-68
2021/11/11 01:21:27;;;;;;;2.85;2.45;;;21.90;39.70;;;;;;5053312;28;20451;-67
2021/11/11 01:23:54;;;;;;;3.00;2.33;;;22.00;40.10;;;;;;5046097;28;20386;-67
2021/11/11 01:26:20;;;;;;;3.33;2.80;;;22.00;40.00;;;;;;5050459;28;20384;-68
2021/11/11 01:28:46;;;;;;;3.05;2.60;;;22.00;39.70;;;;;;5046270;28;20381;-66
2021/11/11 01:31:11;;;;;;;2.80;2.30;;;21.90;38.90;;;;;;5054418;28;20455;-68
2021/11/11 01:33:37;;;;;;;3.05;2.50;;;21.90;39.00;;;;;;5050760;28;20385;-67
2021/11/11 01:36:03;;;;;;;4.10;2.63;;;21.90;39.20;;;;;;5046195;28;20406;-68
2021/11/11 01:38:29;;;;;;;2.83;2.37;;;21.90;39.80;;;;;;5050159;28;20475;-68
2021/11/11 01:40:55;;;;;;;2.58;2.30;;;21.90;39.90;;;;;;5053659;28;20439;-67
2021/11/11 01:43:21;;;;;;;3.38;2.47;;;21.90;39.70;;;;;;5052214;28;20527;-67
2021/11/11 01:45:47;;;;;;;3.15;2.30;;;21.90;39.00;;;;;;5046387;28;20406;-67
2021/11/11 01:48:15;;;;;;;3.23;2.40;;;21.90;38.90;;;;;;5050968;28;20393;-67
2021/11/11 01:50:42;;;;;;;2.90;2.50;;;21.80;39.20;;;;;;5054327;28;20415;-68
2021/11/11 01:53:09;;;;;;;2.53;2.30;;;21.80;39.60;;;;;;5044595;28;20392;-67
2021/11/11 01:55:37;;;;;;;2.60;2.10;;;21.80;39.90;;;;;;5053770;28;20862;-68
2021/11/11 01:58:03;;;;;;;3.08;2.53;;;21.90;40.00;;;;;;5048462;28;20444;-68
2021/11/11 02:00:33;;;;;;;3.00;2.47;;;21.80;39.50;;;;;;5049115;28;20462;-67
2021/11/11 02:03:05;;;;;;;2.60;2.30;;;21.80;39.00;;;;;;5046522;28;20476;-67
2021/11/11 02:05:31;;;;;;;2.50;2.10;;;21.70;39.20;;;;;;5051873;28;20390;-66
2021/11/11 02:07:57;;;;;;;2.80;2.10;;;21.70;39.90;;;;;;5047873;28;20385;-67
2021/11/11 02:10:24;;;;;;;2.60;2.22;;;21.80;40.10;;;;;;5046018;28;20759;-67
2021/11/11 02:12:50;;;;;;;2.65;2.40;;;21.80;39.90;;;;;;5056945;28;20405;-67
2021/11/11 02:15:19;;;;;;;2.90;2.40;;;21.70;39.40;;;;;;5050383;28;20392;-68
2021/11/11 02:17:45;;;;;;;2.72;2.30;;;21.70;39.10;;;;;;5049355;28;20444;-67
2021/11/11 02:20:18;;;;;;;2.40;2.13;;;21.70;39.20;;;;;;5045190;28;20385;-68
2021/11/11 02:22:44;;;;;;;2.80;2.33;;;21.60;39.80;;;;;;5050585;28;20386;-68
2021/11/11 02:25:17;;;;;;;2.63;2.20;;;21.70;40.10;;;;;;5049915;28;20454;-66
2021/11/11 02:27:43;;;;;;;2.70;2.30;;;21.70;39.90;;;;;;5048371;28;20405;-67
2021/11/11 02:30:12;;;;;;;2.97;2.50;;;21.70;39.80;;;;;;5048056;28;20381;-68
2021/11/11 02:32:38;;;;;;;3.17;2.50;;;21.60;39.20;;;;;;5047500;28;20397;-67
2021/11/11 02:35:07;;;;;;;2.85;2.55;;;21.60;39.20;;;;;;5049734;28;20382;-68
2021/11/11 02:37:33;;;;;;;2.70;2.35;;;21.60;39.70;;;;;;5050628;28;21335;-68
2021/11/11 02:40:02;;;;;;;2.67;2.20;;;21.60;40.00;;;;;;5056711;28;20430;-67
2021/11/11 02:42:28;;;;;;;2.85;2.30;;;21.60;39.90;;;;;;5053933;28;20406;-68
2021/11/11 02:44:59;;;;;;;3.30;2.53;;;21.60;39.70;;;;;;5043975;28;20713;-68
2021/11/11 02:47:25;;;;;;;2.92;2.50;;;21.60;39.30;;;;;;5056815;28;20431;-67
2021/11/11 02:49:51;;;;;;;2.65;2.45;;;21.60;39.30;;;;;;5048992;28;20424;-67
2021/11/11 02:52:17;;;;;;;3.00;2.50;;;21.50;39.50;;;;;;5050334;28;20495;-67
2021/11/11 02:54:43;;;;;;;3.00;2.50;;;21.50;39.90;;;;;;5049803;28;20385;-67
2021/11/11 02:57:22;;;;;;;3.00;2.40;;;21.60;39.90;;;;;;5048432;28;20782;-67
2021/11/11 02:59:49;;;;;;;3.13;2.47;;;21.50;39.70;;;;;;5051347;28;20400;-68
2021/11/11 03:02:29;;;;;;;3.03;2.58;;;21.50;39.20;;;;;;5053243;28;20478;-68
2021/11/11 03:04:59;;;;;;;2.77;2.50;;;21.50;39.10;;;;;;5050574;28;20751;-66
2021/11/11 03:07:25;;;;;;;3.00;2.38;;;21.50;39.60;;;;;;5057257;28;20435;-68
2021/11/11 03:09:52;;;;;;;3.00;2.28;;;21.50;40.10;;;;;;5059397;28;20396;-66
2021/11/11 03:12:18;;;;;;;2.88;2.30;;;21.50;39.90;;;;;;5053291;28;20424;-68
2021/11/11 03:14:45;;;;;;;3.17;2.63;;;21.50;39.80;;;;;;5051657;28;20461;-68
2021/11/11 03:17:11;;;;;;;3.00;2.60;;;21.50;39.30;;;;;;5051129;28;20496;-68
2021/11/11 03:19:38;;;;;;;3.00;2.60;;;21.40;39.20;;;;;;5050223;28;20398;-67
2021/11/11 03:22:06;;;;;;;3.03;2.60;;;21.40;39.30;;;;;;5051032;28;20398;-66
2021/11/11 03:24:33;;;;;;;3.03;2.60;;;21.40;39.90;;;;;;5044986;28;20516;-68
2021/11/11 03:26:59;;;;;;;3.60;2.80;;;21.40;39.90;;;;;;5055505;28;20415;-68
2021/11/11 03:29:25;;;;;;;3.03;2.67;;;21.40;39.80;;;;;;5056835;28;20389;-67
2021/11/11 03:31:51;;;;;;;2.63;2.33;;;21.40;39.30;;;;;;5046355;28;20448;-66
2021/11/11 03:34:18;;;;;;;3.67;2.53;;;21.40;39.30;;;;;;5045581;28;20768;-67
2021/11/11 03:36:44;;;;;;;2.63;2.40;;;21.30;39.30;;;;;;5052318;28;20766;-66
2021/11/11 03:39:10;;;;;;;2.60;2.40;;;21.30;39.80;;;;;;5047038;28;20393;-67
2021/11/11 03:41:36;;;;;;;3.00;2.50;;;21.30;39.90;;;;;;5048807;28;20515;-67
2021/11/11 03:44:01;;;;;;;2.80;2.50;;;21.40;40.40;;;;;;5051681;28;20796;-67
2021/11/11 03:46:27;;;;;;;3.20;2.67;;;21.30;39.30;;;;;;5056142;28;20401;-67
2021/11/11 03:48:53;;;;;;;3.30;2.60;;;21.30;39.20;;;;;;5050805;28;20810;-67
2021/11/11 03:51:21;;;;;;;3.07;2.47;;;21.30;39.40;;;;;;5044649;28;20402;-67
2021/11/11 03:53:49;;;;;;;2.65;2.33;;;21.20;39.50;;;;;;5050616;28;20398;-67
2021/11/11 03:56:15;;;;;;;2.92;2.60;;;21.30;40.00;;;;;;5050319;28;20384;-67
2021/11/11 03:58:44;;;;;;;2.83;2.53;;;21.30;39.90;;;;;;5051437;28;20415;-68
2021/11/11 04:01:10;;;;;;;3.03;2.42;;;21.30;39.40;;;;;;5051251;28;20377;-67
2021/11/11 04:03:36;;;;;;;2.60;2.30;;;21.30;39.50;;;;;;5050528;28;20419;-66
2021/11/11 04:06:01;;;;;;;3.33;2.40;;;21.30;39.40;;;;;;5059915;28;21056;-67
2021/11/11 04:08:27;;;;;;;3.47;2.40;;;21.30;39.70;;;;;;5059418;28;20415;-67
2021/11/11 04:10:53;;;;;;;6.87;2.30;;;21.30;40.00;;;;;;5054424;28;20773;-68
2021/11/11 04:13:19;;;;;;;4.32;2.58;;;21.40;40.20;;;;;;5049038;28;20404;-67
2021/11/11 04:15:44;;;;;;;3.72;2.88;;;21.40;39.90;;;;;;5054895;28;20409;-68
2021/11/11 04:18:10;;;;;;;4.90;3.20;;;21.40;40.80;;;;;;5058357;28;20387;-68
2021/11/11 04:20:36;;;;;;;5.90;3.30;;;21.30;41.20;;;;;;5055935;28;20388;-68
2021/11/11 04:23:01;;;;;;;4.07;2.93;;;21.30;41.40;;;;;;5053867;28;20762;-67
2021/11/11 04:25:51;;;;;;;7.30;2.88;;;21.40;41.60;;;;;;5050652;28;21028;-68
2021/11/11 04:28:22;;;;;;;3.53;2.70;;;21.50;41.50;;;;;;5043232;28;20402;-67
2021/11/11 04:30:51;;;;;;;5.22;2.80;;;21.40;41.00;;;;;;5056047;28;20407;-67
2021/11/11 04:33:17;;;;;;;7.78;2.75;;;21.40;40.10;;;;;;5053615;28;20504;-67
2021/11/11 04:35:47;;;;;;;4.18;2.65;;;21.30;40.50;;;;;;5048359;28;20798;-67
2021/11/11 04:38:29;;;;;;;6.22;2.97;;;21.30;40.90;;;;;;5054265;28;20407;-67
2021/11/11 04:41:26;;;;;;;3.22;2.70;;;21.40;40.90;;;;;;5052797;28;20415;-67
2021/11/11 04:44:03;;;;;;;3.63;2.58;;;21.40;40.80;;;;;;5048978;28;20751;-69
2021/11/11 05:03:00;;;;;;;5.10;2.75;;;21.60;41.60;;;;;;5054615;28;20408;-67
2021/11/11 05:04:56;;;;;;;6.10;2.73;;;21.70;41.30;;;;;;5050069;28;20568;-69
2021/11/11 05:07:22;;;;;;;3.85;2.40;;;21.70;41.10;;;;;;5053807;28;20393;-66
2021/11/11 05:09:48;;;;;;;3.63;2.30;;;21.80;41.00;;;;;;5052334;28;20921;-67
2021/11/11 05:12:14;;;;;;;3.42;2.33;;;21.80;40.80;;;;;;5050652;28;20824;-67
2021/11/11 05:14:40;;;;;;;5.90;2.40;;;21.90;40.70;;;;;;5044370;28;20388;-67
2021/11/11 05:17:06;;;;;;;3.90;2.50;;;21.90;40.60;;;;;;5050713;28;20401;-67
2021/11/11 05:19:32;;;;;;;4.40;2.25;;;21.90;40.40;;;;;;5047994;28;20385;-66
2021/11/11 05:21:58;;;;;;;2.80;2.10;;;22.00;40.20;;;;;;5048749;28;20389;-68
2021/11/11 05:24:24;;;;;;;4.87;2.27;;;22.00;40.10;;;;;;5053360;28;20406;-67
2021/11/11 05:26:50;;;;;;;5.00;2.55;;;22.10;41.10;;;;;;5050602;28;20399;-68
2021/11/11 05:29:16;;;;;;;7.50;2.55;;;22.20;41.10;;;;;;5049566;28;20427;-68
2021/11/11 05:31:43;;;;;;;4.68;2.30;;;22.20;41.30;;;;;;5050502;28;20932;-67
2021/11/11 05:34:08;;;;;;;5.13;3.75;;;22.30;41.30;;;;;;5051229;28;20769;-68
2021/11/11 05:36:34;;;;;;;6.07;3.00;;;22.40;42.30;;;;;;5050383;28;20404;-67
2021/11/11 05:39:00;;;;;;;4.93;2.80;;;22.30;41.60;;;;;;5057067;28;20396;-67
2021/11/11 05:41:25;;;;;;;5.95;2.78;;;22.30;41.60;;;;;;5049010;28;20413;-67
2021/11/11 05:43:51;;;;;;;5.87;2.70;;;22.30;41.70;;;;;;5051369;28;20965;-68
2021/11/11 05:46:17;;;;;;;6.45;2.42;;;22.40;41.60;;;;;;5049924;28;20435;-67
2021/11/11 05:48:43;;;;;;;5.00;2.40;;;22.40;41.40;;;;;;5053024;28;20418;-67
2021/11/11 05:51:08;;;;;;;6.10;2.72;;;22.30;41.00;;;;;;5045407;28;20407;-67
2021/11/11 05:53:34;;;;;;;5.22;2.58;;;22.30;41.20;;;;;;5055141;28;20731;-67
2021/11/11 05:56:00;;;;;;;5.07;2.40;;;22.30;41.20;;;;;;5053632;28;20470;-66
2021/11/11 05:58:25;;;;;;;4.57;2.35;;;22.30;41.50;;;;;;5046604;28;20393;-67
2021/11/11 06:00:51;;;;;;;6.67;2.40;;;22.40;41.40;;;;;;5058110;28;20489;-69
2021/11/11 06:03:17;;;;;;;7.47;2.22;;;22.40;41.60;;;;;;5051070;28;20469;-67
2021/11/11 06:05:43;;;;;;;5.28;2.47;;;22.40;41.60;;;;;;5049821;28;20439;-69
2021/11/11 06:08:09;;;;;;;7.60;2.63;;;22.20;40.90;;;;;;5042898;28;21479;-69
2021/11/11 06:10:35;;;;;;;5.30;2.55;;;22.20;40.80;;;;;;5052319;28;20405;-68
2021/11/11 06:13:00;;;;;;;4.90;2.43;;;22.10;41.20;;;;;;5045821;28;20396;-69
2021/11/11 06:15:26;;;;;;;7.15;2.70;;;22.10;41.40;;;;;;5048260;28;20396;-68
2021/11/11 06:17:55;;;;;;;6.15;2.38;;;22.20;41.50;;;;;;5051072;28;20421;-68
2021/11/11 06:20:30;;;;;;;6.93;2.40;;;22.20;41.60;;;;;;5048411;28;20388;-68
2021/11/11 06:22:56;;;;;;;4.90;2.55;;;22.10;40.80;;;;;;5051035;28;20403;-68
2021/11/11 06:25:22;;;;;;;7.00;2.50;;;22.00;40.70;;;;;;5053121;28;20388;-69
2021/11/11 06:27:47;;;;;;;4.33;2.40;;;21.90;41.10;;;;;;5051202;28;21187;-69
2021/11/11 06:30:13;;;;;;;4.85;2.13;;;21.90;41.70;;;;;;5049169;28;20480;-68
2021/11/11 06:32:39;;;;;;;5.63;2.33;;;22.00;43.10;;;;;;5059925;28;20407;-69
2021/11/11 06:35:07;;;;;;;3.55;2.30;;;22.00;42.50;;;;;;5052009;28;20389;-69
2021/11/11 06:37:34;;;;;;;5.30;2.60;;;22.00;41.60;;;;;;5053589;28;20474;-69
2021/11/11 06:40:00;;;;;;;4.35;2.40;;;21.90;41.30;;;;;;5050928;28;20397;-68
2021/11/11 06:42:25;;;;;;;4.77;2.30;;;21.80;41.60;;;;;;5055109;28;20967;-69
2021/11/11 06:44:51;;;;;;;4.57;2.28;;;21.80;41.80;;;;;;5053061;28;20397;-67
2021/11/11 06:47:17;;;;;;;4.15;2.33;;;21.80;42.10;;;;;;5053541;28;20734;-66
2021/11/11 06:49:43;;;;;;;4.87;2.00;;;21.90;42.40;;;;;;5049202;28;20883;-67
2021/11/11 06:52:09;;;;;;;3.20;1.73;;;21.80;41.50;;;;;;5052096;28;20424;-67
2021/11/11 06:54:35;;;;;;;6.88;2.30;;;21.80;41.10;;;;;;5053956;28;20404;-65
2021/11/11 06:57:02;;;;;;;3.97;2.25;;;21.80;41.30;;;;;;5050239;28;20397;-68
2021/11/11 06:59:27;;;;;;;5.90;2.10;;;21.70;42.10;;;;;;5051690;28;20378;-68
2021/11/11 07:01:53;;;;;;;3.83;2.00;;;21.70;42.40;;;;;;5048433;28;20451;-67
2021/11/11 07:04:24;;;;;;;7.13;2.23;;;21.80;42.10;;;;;;5056589;28;20399;-67
2021/11/11 07:06:51;;;;;;;3.10;2.00;;;21.80;42.10;;;;;;5051305;28;20405;-68
2021/11/11 07:09:16;;;;;;;4.57;2.23;;;21.80;41.70;;;;;;5054583;28;20384;-66
2021/11/11 07:11:42;;;;;;;6.88;2.10;;;21.90;42.90;;;;;;5053969;28;20770;-67
2021/11/11 07:14:08;;;;;;;4.27;2.10;;;21.90;42.30;;;;;;5049953;28;20390;-66
2021/11/11 07:16:33;;;;;;;6.28;2.13;;;22.00;42.20;;;;;;5045861;28;20390;-67
2021/11/11 07:18:59;;;;;;;6.10;2.30;;;22.10;41.90;;;;;;5053335;28;20443;-67
2021/11/11 07:21:25;;;;;;;5.90;2.15;;;22.10;41.50;;;;;;5050338;28;20390;-67
2021/11/11 07:23:50;;;;;;;5.67;2.00;;;22.00;41.20;;;;;;5053823;28;20478;-67
2021/11/11 07:26:16;;;;;;;5.97;1.90;;;21.90;41.30;;;;;;5050434;28;20432;-66
2021/11/11 07:28:42;;;;;;;4.63;2.17;;;21.90;41.50;;;;;;5054356;28;20388;-67
2021/11/11 07:31:07;;;;;;;5.18;2.42;;;21.90;41.90;;;;;;5053405;28;21277;-67
2021/11/11 07:33:33;;;;;;;4.10;2.13;;;21.90;41.40;;;;;;5055759;28;20472;-67
2021/11/11 07:36:02;;;;;;;4.63;1.92;;;22.00;42.10;;;;;;5055098;28;20424;-67
2021/11/11 07:38:28;;;;;;;4.10;2.30;;;22.00;42.30;;;;;;5049022;28;20395;-66
2021/11/11 07:40:53;;;;;;;5.17;2.17;;;22.10;43.80;;;;;;5049016;28;20447;-67
2021/11/11 07:43:19;;;;;;;4.53;2.03;;;22.10;42.70;;;;;;5050933;28;20416;-66
2021/11/11 07:45:46;;;;;;;5.43;2.10;;;22.10;43.00;;;;;;5047062;28;20808;-66
2021/11/11 07:48:12;;;;;;;3.28;1.90;;;22.20;42.80;;;;;;5052499;28;20393;-68
2021/11/11 07:50:40;;;;;;;4.43;2.13;;;22.10;42.30;;;;;;5046526;28;20425;-67
2021/11/11 07:53:09;;;;;;;3.75;1.92;;;22.10;42.10;;;;;;5048209;28;20388;-68
2021/11/11 07:55:38;;;;;;;2.97;1.80;;;22.10;42.10;;;;;;5050537;28;20384;-66
2021/11/11 07:58:04;;;;;;;5.57;1.98;;;22.20;41.90;;;;;;5056066;28;20396;-68
2021/11/11 08:00:31;;;;;;;3.78;1.75;;;22.10;41.60;;;;;;5055225;28;20632;-67
2021/11/11 08:02:57;;;;;;;4.32;1.98;;;22.10;41.20;;;;;;5053661;28;20396;-67
2021/11/11 08:05:23;;;;;;;7.28;2.10;;;22.20;41.20;;;;;;5054910;28;20467;-67
2021/11/11 08:07:50;;;;;;;4.07;1.90;;;22.10;41.10;;;;;;5049762;28;20391;-66
2021/11/11 08:10:20;;;;;;;2.47;1.73;;;22.10;41.00;;;;;;5051275;28;20396;-68
2021/11/11 08:12:46;;;;;;;3.63;1.73;;;22.20;41.00;;;;;;5052688;28;20404;-68
2021/11/11 08:15:14;;;;;;;4.53;1.98;;;22.20;41.00;;;;;;5054272;28;20385;-67
2021/11/11 08:17:41;;;;;;;4.30;1.90;;;22.10;40.80;;;;;;5052592;28;20420;-67
2021/11/11 08:20:08;;;;;;;4.00;2.03;;;22.20;40.90;;;;;;5049584;28;20454;-68
2021/11/11 08:22:35;;;;;;;4.38;1.85;;;22.20;41.00;;;;;;5057333;28;20406;-67
2021/11/11 08:25:01;;;;;;;6.15;2.10;;;22.20;40.80;;;;;;5053645;28;20404;-67
2021/11/11 08:27:28;;;;;;;4.50;2.00;;;22.20;40.60;;;;;;5054045;28;20388;-67
2021/11/11 08:29:54;;;;;;;3.60;2.00;;;22.20;41.00;;;;;;5053791;28;20394;-66
2021/11/11 08:32:21;;;;;;;5.05;1.90;;;22.20;41.40;;;;;;5052858;28;20423;-66
2021/11/11 08:34:49;;;;;;;3.50;1.80;;;22.30;41.00;;;;;;5046799;28;20388;-67
2021/11/11 08:37:14;;;;;;;3.08;1.80;;;22.30;41.00;;;;;;5053622;28;20966;-66
2021/11/11 08:39:41;;;;;;;4.63;2.03;;;22.30;40.90;;;;;;5061703;28;20439;-66
2021/11/11 08:42:09;;;;;;;4.97;1.98;;;22.30;40.70;;;;;;5045242;28;20439;-67
2021/11/11 08:44:37;;;;;;;3.65;2.00;;;22.40;40.80;;;;;;5051964;28;20902;-66
2021/11/11 08:47:03;;;;;;;3.50;2.10;;;22.50;40.60;;;;;;5049483;28;20404;-67
2021/11/11 08:49:31;;;;;;;2.65;1.75;;;22.60;40.20;;;;;;5055769;28;20402;-69
2021/11/11 08:51:57;;;;;;;6.07;2.10;;;22.50;39.90;;;;;;5045167;28;20512;-67
2021/11/11 08:54:23;;;;;;;2.88;1.73;;;22.50;40.20;;;;;;5053390;28;20391;-67
2021/11/11 08:56:50;;;;;;;5.77;2.00;;;22.30;40.50;;;;;;5049789;28;20463;-68
2021/11/11 08:59:20;;;;;;;2.63;1.90;;;22.40;40.70;;;;;;5047316;28;20905;-67
2021/11/11 09:01:47;;;;;;;4.15;2.00;;;22.50;41.00;;;;;;5046359;28;20401;-67
2021/11/11 09:04:14;;;;;;;3.92;1.92;;;22.60;41.40;;;;;;5045851;28;20377;-67
2021/11/11 09:06:42;;;;;;;4.70;1.90;;;22.60;42.30;;;;;;5051160;28;20393;-67
2021/11/11 09:09:08;;;;;;;3.05;1.67;;;22.60;42.40;;;;;;5046891;28;20951;-67
2021/11/11 09:11:36;;;;;;;4.15;1.90;;;22.60;43.00;;;;;;5050144;28;21056;-67
2021/11/11 09:14:02;;;;;;;4.22;2.40;;;22.60;42.80;;;;;;5052539;28;20384;-67
2021/11/11 09:16:28;;;;;;;3.60;1.83;;;22.50;42.60;;;;;;5060332;28;20488;-68
2021/11/11 09:18:54;;;;;;;2.67;1.70;;;22.50;42.50;;;;;;5052532;28;20385;-67
2021/11/11 09:21:20;;;;;;;2.10;1.70;;;22.50;42.30;;;;;;5050140;28;20401;-67
2021/11/11 09:23:48;;;;;;;4.95;1.85;;;22.50;42.40;;;;;;5051966;28;20778;-67
2021/11/11 09:26:14;;;;;;;3.00;1.87;;;22.40;42.30;;;;;;5050591;28;21023;-67
2021/11/11 09:28:41;;;;;;;2.85;1.70;;;22.40;42.10;;;;;;5047044;28;20382;-67
2021/11/11 09:31:10;;;;;;;2.50;2.05;;;22.40;42.10;;;;;;5053539;28;20460;-67
2021/11/11 09:33:36;;;;;;;2.70;1.80;;;22.40;42.20;;;;;;5050253;28;20404;-67
2021/11/11 09:36:03;;;;;;;2.50;1.70;;;22.30;42.00;;;;;;5053677;28;20514;-67
2021/11/11 09:38:28;;;;;;;2.80;2.10;;;22.30;42.00;;;;;;5044140;28;20412;-67
2021/11/11 09:40:55;;;;;;;1.95;1.60;;;22.30;42.10;;;;;;5047540;28;20814;-66
2021/11/11 09:43:21;;;;;;;2.77;1.60;;;22.20;42.10;;;;;;5051169;28;20747;-67
2021/11/11 09:45:48;;;;;;;2.58;1.80;;;22.20;41.90;;;;;;5048568;28;20375;-67
2021/11/11 09:48:15;;;;;;;3.00;1.80;;;22.20;42.20;;;;;;5054058;28;20488;-68
2021/11/11 09:50:44;;;;;;;3.53;1.65;;;22.20;42.20;;;;;;5045926;28;20420;-67
2021/11/11 09:53:12;;;;;;;3.55;2.10;;;22.20;42.10;;;;;;5055913;28;20404;-67
2021/11/11 09:58:45;;;;;;;3.25;2.00;;;22.10;42.60;;;;;;5044872;28;20786;-68
2021/11/11 10:01:20;;;;;;;3.33;2.00;;;22.10;42.40;;;;;;5049622;28;21005;-67
2021/11/11 10:03:48;;;;;;;2.08;1.60;;;22.10;42.30;;;;;;5048868;28;20431;-66
2021/11/11 10:06:20;;;;;;;3.22;2.05;;;22.10;42.30;;;;;;5057676;28;20425;-66
2021/11/11 10:08:48;;;;;;;2.97;1.95;;;22.10;42.30;;;;;;5054148;28;20828;-65
2021/11/11 10:11:36;;;;;;;2.50;2.20;;;22.10;42.30;;;;;;5051324;28;20413;-67
2021/11/11 10:14:10;;;;;;;2.58;2.10;;;22.10;42.50;;;;;;5049448;28;20393;-67
2021/11/11 10:16:49;;;;;;;2.30;2.10;;;22.10;42.50;;;;;;5050966;28;20399;-68
2021/11/11 10:19:15;;;;;;;2.78;2.08;;;22.00;42.40;;;;;;5047760;28;20401;-67
2021/11/11 10:22:19;;;;;;;2.40;2.00;;;22.10;42.50;;;;;;5054239;28;21764;-67
2021/11/11 10:24:52;;;;;;;4.07;2.20;;;22.00;42.60;;;;;;5055725;28;20790;-67
2021/11/11 10:28:01;;;;;;;2.67;2.27;;;22.00;42.60;;;;;;5047009;28;20391;-68
2021/11/11 10:30:27;;;;;;;2.88;2.22;;;22.00;42.60;;;;;;5054585;28;20478;-68
2021/11/11 10:32:56;;;;;;;3.00;2.40;;;22.00;42.50;;;;;;5058203;28;20397;-68
2021/11/11 10:35:31;;;;;;;2.90;2.60;;;22.00;42.60;;;;;;5051100;28;20391;-68
2021/11/11 10:38:14;;;;;;;3.30;2.60;;;22.00;42.70;;;;;;5048746;28;20404;-68
2021/11/11 10:40:45;;;;;;;3.75;2.40;;;21.90;42.40;;;;;;5050822;28;20404;-68
2021/11/11 10:43:18;;;;;;;3.95;2.60;;;21.90;42.50;;;;;;5049961;28;20942;-68
2021/11/11 10:45:46;;;;;;;4.03;2.90;;;21.90;42.30;;;;;;5049877;28;20450;-69
2021/11/11 10:48:16;;;;;;;5.13;4.00;;;22.00;42.20;;;;;;5055754;28;20916;-69
2021/11/11 10:50:47;;;;;;;5.00;3.20;;;21.90;41.70;;;;;;5051537;28;20433;-68
2021/11/11 10:53:18;;;;;;;7.93;3.67;;;21.90;41.90;;;;;;5053510;28;20786;-69
2021/11/11 10:55:49;;;;;;;6.20;3.55;;;21.90;42.90;;;;;;5053032;28;20901;-69
2021/11/11 10:58:17;;;;;;;5.95;3.53;;;22.00;43.40;;;;;;5053566;28;20510;-68
2021/11/11 11:00:52;;;;;;;6.15;3.72;;;22.10;43.00;;;;;;5048852;28;20445;-68
2021/11/11 11:03:27;;;;;;;6.57;4.03;;;22.30;44.00;;;;;;5055369;28;20406;-68
2021/11/11 11:05:53;;;;;;;5.57;4.40;;;22.50;43.40;;;;;;5057428;28;20436;-69
2021/11/11 11:08:18;;;;;;;6.50;4.43;;;22.60;43.60;;;;;;5045393;28;20806;-68
2021/11/11 11:10:47;;;;;;;6.37;4.10;;;22.60;43.60;;;;;;5058649;28;20409;-68
2021/11/11 11:13:18;;;;;;;8.32;4.25;;;22.60;43.70;;;;;;5048754;28;20408;-70
2021/11/11 11:15:53;;;;;;;7.43;3.95;;;22.50;43.60;;;;;;5047824;28;20408;-69
2021/11/11 11:18:25;;;;;;;4.28;3.70;;;22.40;43.20;;;;;;5055488;28;20830;-67
2021/11/11 11:21:02;;;;;;;6.78;4.50;;;22.40;43.50;;;;;;5056533;28;20419;-67
2021/11/11 11:23:33;;;;;;;6.75;3.95;;;22.50;44.40;;;;;;5054624;28;20400;-69
2021/11/11 11:26:06;;;;;;;4.93;4.20;;;22.80;43.90;;;;;;5052496;28;20397;-66
2021/11/11 11:28:42;;;;;;;4.93;3.93;;;22.90;43.60;;;;;;5054735;28;20433;-68
2021/11/11 11:31:09;;;;;;;4.72;3.88;;;22.90;44.00;;;;;;5060403;28;20923;-69
2021/11/11 11:33:43;;;;;;;5.88;4.13;;;22.90;43.60;;;;;;5049136;28;20393;-67
2021/11/11 11:36:17;;;;;;;4.88;3.90;;;22.80;43.50;;;;;;5048416;28;20878;-68
2021/11/11 11:38:54;;;;;;;5.93;3.70;;;22.80;43.30;;;;;;5052936;28;20417;-68
2021/11/11 11:41:41;;;;;;;5.68;3.70;;;22.70;43.20;;;;;;5054277;28;20413;-68
2021/11/11 11:44:16;;;;;;;5.85;3.63;;;22.70;43.10;;;;;;5046728;28;20380;-68
2021/11/11 11:46:50;;;;;;;5.88;3.72;;;22.70;43.20;;;;;;5049523;28;20425;-68
2021/11/11 11:49:16;;;;;;;5.50;4.05;;;22.70;43.40;;;;;;5051243;28;20806;-66
2021/11/11 11:51:42;;;;;;;5.45;3.53;;;22.70;43.40;;;;;;5049440;28;20420;-67
2021/11/11 11:54:35;;;;;;;4.40;3.43;;;22.70;43.60;;;;;;5055793;28;20884;-69
2021/11/11 11:56:59;;;;;;;4.88;3.53;;;22.70;43.70;;;;;;5052214;28;20804;-66
2021/11/11 11:59:29;;;;;;;5.82;3.38;;;22.80;43.90;;;;;;5051638;28;20386;-69
2021/11/11 12:02:07;;;;;;;5.15;3.40;;;23.00;43.90;;;;;;5051197;28;20412;-68
2021/11/11 12:10:20;;;;;;;5.05;3.35;;;23.00;41.90;;;;;;5048164;28;20381;-68
2021/11/11 12:13:10;;;;;;;5.10;3.40;;;22.90;41.70;;;;;;5050470;28;20491;-66
2021/11/11 12:40:38;;;;;;;4.57;3.25;;;23.00;41.00;;;;;;5045011;28;20806;-68
2021/11/11 12:43:15;;;;;;;4.37;3.20;;;23.00;41.00;;;;;;5049571;28;20418;-68
2021/11/11 12:45:41;;;;;;;3.92;3.45;;;22.90;40.80;;;;;;5054700;28;20881;-67
2021/11/11 12:48:10;;;;;;;3.83;3.17;;;22.90;40.90;;;;;;5046246;28;20417;-68
2021/11/11 12:51:00;;;;;;;3.70;3.30;;;22.90;40.90;;;;;;5053662;28;20468;-67
2021/11/11 12:53:31;;;;;;;5.00;3.30;;;22.80;41.00;;;;;;5047912;28;20760;-66
2021/11/11 12:55:59;;;;;;;4.18;3.33;;;22.70;40.90;;;;;;5047893;28;20435;-68
2021/11/11 12:58:46;;;;;;;3.60;2.85;;;22.70;40.90;;;;;;5053623;28;20402;-68
2021/11/11 13:01:16;;;;;;;3.85;3.17;;;22.70;41.00;;;;;;5049059;28;20399;-68
2021/11/11 13:03:56;;;;;;;3.33;3.03;;;22.70;41.00;;;;;;5056898;28;20491;-67
2021/11/11 13:06:46;;;;;;;4.43;3.25;;;22.70;40.80;;;;;;5052349;28;20425;-70
2021/11/11 13:09:31;;;;;;;4.15;3.20;;;22.70;40.90;;;;;;5048133;28;20401;-67
2021/11/11 13:12:14;;;;;;;3.90;3.50;;;22.70;41.00;;;;;;5052191;28;20430;-70
2021/11/11 13:14:56;;;;;;;5.60;3.73;;;22.70;41.10;;;;;;5045402;28;20827;-70
2021/11/11 13:17:28;;;;;;;4.18;3.70;;;22.80;41.80;;;;;;5053665;28;20395;-72
2021/11/11 13:20:04;;;;;;;4.65;3.38;;;23.00;40.80;;;;;;5049480;28;21007;-72
2021/11/11 13:22:48;;;;;;;3.93;3.50;;;23.00;40.80;;;;;;5052917;28;20478;-68
2021/11/11 15:19:58;;;;;;;6.18;3.33;;;22.90;41.70;;;;;;5054777;28;20386;-70
2021/11/11 16:26:16;;;;;;;7.97;6.82;;;23.40;44.00;;;;;;5049888;28;20504;-68
2021/11/11 16:28:46;;;;;;;13.90;7.50;;;23.50;43.00;;;;;;5048093;28;20447;-73
2021/11/11 16:31:14;;;;;;;8.73;6.43;;;23.40;44.50;;;;;;5048639;28;20409;-72
2021/11/11 16:33:40;;;;;;;9.73;5.85;;;23.50;45.00;;;;;;5047096;28;20427;-73
2021/11/11 16:36:06;;;;;;;8.13;5.60;;;23.50;44.80;;;;;;5046864;28;20474;-70
2021/11/11 16:38:33;;;;;;;9.30;5.47;;;23.50;44.60;;;;;;5051566;28;20439;-70
2021/11/11 16:40:59;;;;;;;9.93;5.18;;;23.50;44.40;;;;;;5044060;28;20433;-69
2021/11/11 16:43:24;;;;;;;9.67;5.13;;;23.50;44.20;;;;;;5043757;28;20415;-72